sensor_id;sensor_type;location;lat;lon;timestamp;P1;durP1;ratioP1;P2;durP2;ratioP2
15216;SDS011;7711;46.634;14.318;2023-05-10T00:01:07;8.10;;;5.00;;
15216;SDS011;7711;46.634;14.318;2023-05-10T00:03:34;7.57;;;5.40;;
15216;SDS011;7711;46.634;14.318;2023-05-10T00:06:01;7.80;;;4.80;;
15216;SDS011;7711;46.634;14.318;2023-05-10T00:08:28;7.73;;;5.80;;
15216;SDS011;7711;46.634;14.318;2023-05-10T00:10:55;8.00;;;5.50;;
15216;SDS011;7711;46.634;14.318;2023-05-10T00:13:22;6.03;;;5.43;;
15216;SDS011;7711;46.634;14.318;2023-05-10T00:15:50;7.17;;;5.53;;
15216;SDS011;7711;46.634;14.318;2023-05-10T00:18:17;7.03;;;5.13;;
15216;SDS011;7711;46.634;14.318;2023-05-10T00:20:44;7.57;;;5.73;;
15216;SDS011;7711;46.634;14.318;2023-05-10T00:23:11;7.63;;;5.50;;
15216;SDS011;7711;46.634;14.318;2023-05-10T00:25:38;5.87;;;5.20;;
15216;SDS011;7711;46.634;14.318;2023-05-10T00:28:05;6.57;;;4.90;;
15216;SDS011;7711;46.634;14.318;2023-05-10T00:30:32;7.63;;;5.00;;
15216;SDS011;7711;46.634;14.318;2023-05-10T00:33:00;6.73;;;5.00;;
15216;SDS011;7711;46.634;14.318;2023-05-10T00:35:27;7.10;;;6.23;;
15216;SDS011;7711;46.634;14.318;2023-05-10T00:37:54;8.17;;;5.47;;
15216;SDS011;7711;46.634;14.318;2023-05-10T00:40:21;7.07;;;5.37;;
15216;SDS011;7711;46.634;14.318;2023-05-10T00:42:49;8.13;;;5.93;;
15216;SDS011;7711;46.634;14.318;2023-05-10T00:45:15;6.13;;;5.53;;
15216;SDS011;7711;46.634;14.318;2023-05-10T00:47:42;6.97;;;5.60;;
15216;SDS011;7711;46.634;14.318;2023-05-10T00:50:11;7.03;;;5.23;;
15216;SDS011;7711;46.634;14.318;2023-05-10T00:52:38;6.97;;;5.60;;
15216;SDS011;7711;46.634;14.318;2023-05-10T00:55:06;7.13;;;5.43;;
15216;SDS011;7711;46.634;14.318;2023-05-10T00:57:33;7.27;;;5.73;;
15216;SDS011;7711;46.634;14.318;2023-05-10T01:00:01;7.43;;;5.97;;
15216;SDS011;7711;46.634;14.318;2023-05-10T01:02:28;6.37;;;5.47;;
15216;SDS011;7711;46.634;14.318;2023-05-10T01:04:55;6.80;;;5.73;;
15216;SDS011;7711;46.634;14.318;2023-05-10T01:07:24;7.57;;;5.97;;
15216;SDS011;7711;46.634;14.318;2023-05-10T01:09:51;7.17;;;5.80;;
15216;SDS011;7711;46.634;14.318;2023-05-10T01:12:18;6.53;;;5.40;;
15216;SDS011;7711;46.634;14.318;2023-05-10T01:14:45;8.87;;;6.00;;
15216;SDS011;7711;46.634;14.318;2023-05-10T01:17:12;6.97;;;6.00;;
15216;SDS011;7711;46.634;14.318;2023-05-10T01:19:41;12.20;;;10.03;;
15216;SDS011;7711;46.634;14.318;2023-05-10T01:22:11;16.10;;;12.87;;
15216;SDS011;7711;46.634;14.318;2023-05-10T01:25:19;15.60;;;10.37;;
15216;SDS011;7711;46.634;14.318;2023-05-10T01:31:03;13.80;;;9.90;;
15216;SDS011;7711;46.634;14.318;2023-05-10T01:33:43;12.37;;;9.67;;
15216;SDS011;7711;46.634;14.318;2023-05-10T01:36:16;9.20;;;7.80;;
15216;SDS011;7711;46.634;14.318;2023-05-10T01:38:53;10.33;;;8.30;;
15216;SDS011;7711;46.634;14.318;2023-05-10T01:41:28;11.10;;;8.40;;
15216;SDS011;7711;46.634;14.318;2023-05-10T01:44:08;12.30;;;8.37;;
15216;SDS011;7711;46.634;14.318;2023-05-10T01:46:40;8.97;;;6.90;;
15216;SDS011;7711;46.634;14.318;2023-05-10T01:49:09;8.13;;;6.40;;
15216;SDS011;7711;46.634;14.318;2023-05-10T01:51:40;12.03;;;7.43;;
15216;SDS011;7711;46.634;14.318;2023-05-10T01:54:20;7.57;;;6.77;;
15216;SDS011;7711;46.634;14.318;2023-05-10T01:56:50;8.57;;;7.37;;
15216;SDS011;7711;46.634;14.318;2023-05-10T01:59:22;7.63;;;6.80;;
15216;SDS011;7711;46.634;14.318;2023-05-10T02:01:54;12.17;;;7.40;;
15216;SDS011;7711;46.634;14.318;2023-05-10T02:04:26;8.17;;;6.97;;
15216;SDS011;7711;46.634;14.318;2023-05-10T02:06:54;12.80;;;7.30;;
15216;SDS011;7711;46.634;14.318;2023-05-10T02:09:22;8.53;;;6.70;;
15216;SDS011;7711;46.634;14.318;2023-05-10T02:11:51;11.10;;;7.57;;
15216;SDS011;7711;46.634;14.318;2023-05-10T02:14:21;10.33;;;7.07;;
15216;SDS011;7711;46.634;14.318;2023-05-10T02:16:49;9.90;;;7.37;;
15216;SDS011;7711;46.634;14.318;2023-05-10T02:19:19;9.50;;;7.13;;
15216;SDS011;7711;46.634;14.318;2023-05-10T02:21:49;7.47;;;6.67;;
15216;SDS011;7711;46.634;14.318;2023-05-10T02:24:17;8.57;;;6.50;;
15216;SDS011;7711;46.634;14.318;2023-05-10T02:26:46;7.97;;;5.93;;
15216;SDS011;7711;46.634;14.318;2023-05-10T02:29:15;7.87;;;5.60;;
15216;SDS011;7711;46.634;14.318;2023-05-10T02:31:44;6.40;;;5.80;;
15216;SDS011;7711;46.634;14.318;2023-05-10T02:34:12;6.83;;;6.07;;
15216;SDS011;7711;46.634;14.318;2023-05-10T02:36:39;10.70;;;6.77;;
15216;SDS011;7711;46.634;14.318;2023-05-10T02:39:09;7.53;;;6.53;;
15216;SDS011;7711;46.634;14.318;2023-05-10T02:41:38;7.13;;;6.43;;
15216;SDS011;7711;46.634;14.318;2023-05-10T02:44:07;11.50;;;6.53;;
15216;SDS011;7711;46.634;14.318;2023-05-10T02:46:35;8.03;;;6.17;;
15216;SDS011;7711;46.634;14.318;2023-05-10T02:49:02;12.37;;;6.90;;
15216;SDS011;7711;46.634;14.318;2023-05-10T02:51:30;9.67;;;6.67;;
15216;SDS011;7711;46.634;14.318;2023-05-10T02:54:01;8.93;;;6.93;;
15216;SDS011;7711;46.634;14.318;2023-05-10T02:56:35;8.07;;;7.13;;
15216;SDS011;7711;46.634;14.318;2023-05-10T02:59:06;12.53;;;7.07;;
15216;SDS011;7711;46.634;14.318;2023-05-10T03:01:33;8.77;;;6.50;;
15216;SDS011;7711;46.634;14.318;2023-05-10T03:04:00;9.30;;;8.13;;
15216;SDS011;7711;46.634;14.318;2023-05-10T03:06:27;9.83;;;7.90;;
15216;SDS011;7711;46.634;14.318;2023-05-10T03:08:54;8.40;;;7.17;;
15216;SDS011;7711;46.634;14.318;2023-05-10T03:11:27;9.87;;;8.07;;
15216;SDS011;7711;46.634;14.318;2023-05-10T03:14:10;8.23;;;7.27;;
15216;SDS011;7711;46.634;14.318;2023-05-10T03:16:52;11.20;;;7.00;;
15216;SDS011;7711;46.634;14.318;2023-05-10T03:19:26;11.43;;;6.93;;
15216;SDS011;7711;46.634;14.318;2023-05-10T03:21:59;11.50;;;7.63;;
15216;SDS011;7711;46.634;14.318;2023-05-10T03:24:31;9.40;;;7.63;;
15216;SDS011;7711;46.634;14.318;2023-05-10T03:27:03;10.97;;;7.27;;
15216;SDS011;7711;46.634;14.318;2023-05-10T03:29:31;11.93;;;7.80;;
15216;SDS011;7711;46.634;14.318;2023-05-10T03:31:59;12.40;;;8.03;;
15216;SDS011;7711;46.634;14.318;2023-05-10T03:34:26;10.97;;;7.80;;
15216;SDS011;7711;46.634;14.318;2023-05-10T03:36:56;13.93;;;8.13;;
15216;SDS011;7711;46.634;14.318;2023-05-10T03:39:23;10.00;;;7.23;;
15216;SDS011;7711;46.634;14.318;2023-05-10T03:41:50;10.80;;;7.77;;
15216;SDS011;7711;46.634;14.318;2023-05-10T03:44:18;12.47;;;8.93;;
15216;SDS011;7711;46.634;14.318;2023-05-10T03:46:45;13.20;;;7.80;;
15216;SDS011;7711;46.634;14.318;2023-05-10T03:49:12;8.93;;;7.30;;
15216;SDS011;7711;46.634;14.318;2023-05-10T03:51:39;10.13;;;7.50;;
15216;SDS011;7711;46.634;14.318;2023-05-10T03:54:06;11.47;;;7.00;;
15216;SDS011;7711;46.634;14.318;2023-05-10T03:56:33;9.27;;;7.03;;
15216;SDS011;7711;46.634;14.318;2023-05-10T03:59:00;10.17;;;6.90;;
15216;SDS011;7711;46.634;14.318;2023-05-10T04:01:33;8.83;;;7.13;;
15216;SDS011;7711;46.634;14.318;2023-05-10T04:04:00;9.30;;;6.63;;
15216;SDS011;7711;46.634;14.318;2023-05-10T04:06:27;9.73;;;6.93;;
15216;SDS011;7711;46.634;14.318;2023-05-10T04:08:54;10.60;;;7.40;;
15216;SDS011;7711;46.634;14.318;2023-05-10T04:11:21;9.73;;;7.03;;
15216;SDS011;7711;46.634;14.318;2023-05-10T04:13:49;9.13;;;6.83;;
15216;SDS011;7711;46.634;14.318;2023-05-10T04:16:16;9.63;;;7.60;;
15216;SDS011;7711;46.634;14.318;2023-05-10T04:18:45;10.57;;;6.40;;
15216;SDS011;7711;46.634;14.318;2023-05-10T04:21:12;7.53;;;6.73;;
15216;SDS011;7711;46.634;14.318;2023-05-10T04:23:39;12.40;;;6.67;;
15216;SDS011;7711;46.634;14.318;2023-05-10T04:26:06;7.43;;;6.53;;
15216;SDS011;7711;46.634;14.318;2023-05-10T04:28:33;9.93;;;6.67;;
15216;SDS011;7711;46.634;14.318;2023-05-10T04:31:00;9.90;;;6.73;;
15216;SDS011;7711;46.634;14.318;2023-05-10T04:33:28;8.27;;;6.47;;
15216;SDS011;7711;46.634;14.318;2023-05-10T04:35:57;9.07;;;7.20;;
15216;SDS011;7711;46.634;14.318;2023-05-10T04:38:24;8.43;;;6.30;;
15216;SDS011;7711;46.634;14.318;2023-05-10T04:40:51;11.73;;;6.70;;
15216;SDS011;7711;46.634;14.318;2023-05-10T04:43:17;10.37;;;6.73;;
15216;SDS011;7711;46.634;14.318;2023-05-10T04:45:45;7.57;;;6.20;;
15216;SDS011;7711;46.634;14.318;2023-05-10T04:48:12;6.67;;;5.67;;
15216;SDS011;7711;46.634;14.318;2023-05-10T04:50:39;6.90;;;6.10;;
15216;SDS011;7711;46.634;14.318;2023-05-10T04:53:07;8.13;;;5.90;;
15216;SDS011;7711;46.634;14.318;2023-05-10T04:55:34;7.47;;;5.50;;
15216;SDS011;7711;46.634;14.318;2023-05-10T04:58:02;9.13;;;6.30;;
15216;SDS011;7711;46.634;14.318;2023-05-10T05:00:29;8.97;;;5.93;;
15216;SDS011;7711;46.634;14.318;2023-05-10T05:02:56;7.47;;;5.73;;
15216;SDS011;7711;46.634;14.318;2023-05-10T05:05:23;6.97;;;6.07;;
15216;SDS011;7711;46.634;14.318;2023-05-10T05:07:50;7.63;;;5.80;;
15216;SDS011;7711;46.634;14.318;2023-05-10T05:10:18;7.33;;;6.63;;
15216;SDS011;7711;46.634;14.318;2023-05-10T05:12:45;8.23;;;6.33;;
15216;SDS011;7711;46.634;14.318;2023-05-10T05:15:12;7.20;;;6.20;;
15216;SDS011;7711;46.634;14.318;2023-05-10T05:17:41;10.77;;;6.80;;
15216;SDS011;7711;46.634;14.318;2023-05-10T05:20:08;8.07;;;6.43;;
15216;SDS011;7711;46.634;14.318;2023-05-10T05:22:36;9.03;;;6.37;;
15216;SDS011;7711;46.634;14.318;2023-05-10T05:25:04;7.50;;;6.37;;
15216;SDS011;7711;46.634;14.318;2023-05-10T05:27:33;6.93;;;6.23;;
15216;SDS011;7711;46.634;14.318;2023-05-10T05:30:00;9.00;;;5.83;;
15216;SDS011;7711;46.634;14.318;2023-05-10T05:32:27;6.32;;;5.70;;
15216;SDS011;7711;46.634;14.318;2023-05-10T05:34:54;8.77;;;6.03;;
15216;SDS011;7711;46.634;14.318;2023-05-10T05:37:21;7.47;;;6.53;;
15216;SDS011;7711;46.634;14.318;2023-05-10T05:39:49;7.82;;;6.13;;
15216;SDS011;7711;46.634;14.318;2023-05-10T05:42:16;8.23;;;6.40;;
15216;SDS011;7711;46.634;14.318;2023-05-10T05:44:45;7.27;;;6.23;;
15216;SDS011;7711;46.634;14.318;2023-05-10T05:47:12;7.43;;;6.20;;
15216;SDS011;7711;46.634;14.318;2023-05-10T05:49:39;9.10;;;6.23;;
15216;SDS011;7711;46.634;14.318;2023-05-10T05:52:06;8.27;;;6.40;;
15216;SDS011;7711;46.634;14.318;2023-05-10T05:54:32;10.32;;;5.97;;
15216;SDS011;7711;46.634;14.318;2023-05-10T05:57:00;6.68;;;5.97;;
15216;SDS011;7711;46.634;14.318;2023-05-10T05:59:27;6.72;;;5.75;;
15216;SDS011;7711;46.634;14.318;2023-05-10T06:01:55;8.52;;;6.28;;
15216;SDS011;7711;46.634;14.318;2023-05-10T06:04:22;7.47;;;6.28;;
15216;SDS011;7711;46.634;14.318;2023-05-10T06:06:49;7.55;;;6.50;;
15216;SDS011;7711;46.634;14.318;2023-05-10T06:09:16;10.55;;;6.53;;
15216;SDS011;7711;46.634;14.318;2023-05-10T06:11:43;7.50;;;5.95;;
15216;SDS011;7711;46.634;14.318;2023-05-10T06:14:10;7.00;;;5.93;;
15216;SDS011;7711;46.634;14.318;2023-05-10T06:16:37;6.32;;;5.72;;
15216;SDS011;7711;46.634;14.318;2023-05-10T06:19:05;11.15;;;6.80;;
15216;SDS011;7711;46.634;14.318;2023-05-10T06:21:32;7.60;;;6.65;;
15216;SDS011;7711;46.634;14.318;2023-05-10T06:23:59;7.18;;;6.30;;
15216;SDS011;7711;46.634;14.318;2023-05-10T06:26:27;8.75;;;6.70;;
15216;SDS011;7711;46.634;14.318;2023-05-10T06:28:54;8.50;;;6.85;;
15216;SDS011;7711;46.634;14.318;2023-05-10T06:31:21;9.95;;;6.45;;
15216;SDS011;7711;46.634;14.318;2023-05-10T06:33:48;8.50;;;6.55;;
15216;SDS011;7711;46.634;14.318;2023-05-10T06:36:17;6.95;;;6.18;;
15216;SDS011;7711;46.634;14.318;2023-05-10T06:38:44;9.93;;;6.68;;
15216;SDS011;7711;46.634;14.318;2023-05-10T06:41:11;7.38;;;6.30;;
15216;SDS011;7711;46.634;14.318;2023-05-10T06:43:38;13.38;;;6.32;;
15216;SDS011;7711;46.634;14.318;2023-05-10T06:46:06;8.63;;;6.50;;
15216;SDS011;7711;46.634;14.318;2023-05-10T06:48:33;7.40;;;6.25;;
15216;SDS011;7711;46.634;14.318;2023-05-10T06:51:00;8.48;;;6.45;;
15216;SDS011;7711;46.634;14.318;2023-05-10T06:53:28;10.35;;;6.65;;
15216;SDS011;7711;46.634;14.318;2023-05-10T06:55:55;6.65;;;5.90;;
15216;SDS011;7711;46.634;14.318;2023-05-10T06:58:22;7.75;;;6.03;;
15216;SDS011;7711;46.634;14.318;2023-05-10T07:00:49;9.25;;;6.03;;
15216;SDS011;7711;46.634;14.318;2023-05-10T07:03:16;6.63;;;6.00;;
15216;SDS011;7711;46.634;14.318;2023-05-10T07:05:43;7.57;;;5.95;;
15216;SDS011;7711;46.634;14.318;2023-05-10T07:08:10;7.75;;;5.72;;
15216;SDS011;7711;46.634;14.318;2023-05-10T07:10:39;11.35;;;5.97;;
15216;SDS011;7711;46.634;14.318;2023-05-10T07:13:06;9.52;;;6.13;;
15216;SDS011;7711;46.634;14.318;2023-05-10T07:15:33;9.63;;;5.88;;
15216;SDS011;7711;46.634;14.318;2023-05-10T07:18:00;9.27;;;5.80;;
15216;SDS011;7711;46.634;14.318;2023-05-10T07:20:27;8.32;;;5.57;;
15216;SDS011;7711;46.634;14.318;2023-05-10T07:22:54;7.70;;;6.25;;
15216;SDS011;7711;46.634;14.318;2023-05-10T07:25:21;6.35;;;5.75;;
15216;SDS011;7711;46.634;14.318;2023-05-10T07:27:52;10.02;;;5.50;;
15216;SDS011;7711;46.634;14.318;2023-05-10T07:30:19;9.68;;;5.28;;
15216;SDS011;7711;46.634;14.318;2023-05-10T07:32:46;7.50;;;5.70;;
15216;SDS011;7711;46.634;14.318;2023-05-10T07:35:13;6.28;;;5.68;;
15216;SDS011;7711;46.634;14.318;2023-05-10T07:37:40;6.00;;;5.35;;
15216;SDS011;7711;46.634;14.318;2023-05-10T07:40:08;6.55;;;4.82;;
15216;SDS011;7711;46.634;14.318;2023-05-10T07:42:35;22.35;;;6.22;;
15216;SDS011;7711;46.634;14.318;2023-05-10T07:45:05;8.48;;;5.40;;
15216;SDS011;7711;46.634;14.318;2023-05-10T07:47:33;11.07;;;6.53;;
15216;SDS011;7711;46.634;14.318;2023-05-10T07:50:00;8.40;;;5.95;;
15216;SDS011;7711;46.634;14.318;2023-05-10T07:52:27;6.80;;;6.07;;
15216;SDS011;7711;46.634;14.318;2023-05-10T07:54:53;7.90;;;5.85;;
15216;SDS011;7711;46.634;14.318;2023-05-10T07:57:21;10.63;;;6.05;;
15216;SDS011;7711;46.634;14.318;2023-05-10T07:59:48;7.97;;;5.88;;
15216;SDS011;7711;46.634;14.318;2023-05-10T08:02:17;9.18;;;5.53;;
15216;SDS011;7711;46.634;14.318;2023-05-10T08:04:44;6.75;;;5.63;;
15216;SDS011;7711;46.634;14.318;2023-05-10T08:07:11;6.63;;;4.90;;
15216;SDS011;7711;46.634;14.318;2023-05-10T08:09:38;7.18;;;5.63;;
15216;SDS011;7711;46.634;14.318;2023-05-10T08:12:05;6.28;;;5.50;;
15216;SDS011;7711;46.634;14.318;2023-05-10T08:14:32;7.70;;;5.10;;
15216;SDS011;7711;46.634;14.318;2023-05-10T08:16:59;6.40;;;4.70;;
15216;SDS011;7711;46.634;14.318;2023-05-10T08:19:27;7.25;;;5.38;;
15216;SDS011;7711;46.634;14.318;2023-05-10T08:21:54;6.65;;;4.93;;
15216;SDS011;7711;46.634;14.318;2023-05-10T08:24:22;7.10;;;5.25;;
15216;SDS011;7711;46.634;14.318;2023-05-10T08:26:49;5.30;;;4.80;;
15216;SDS011;7711;46.634;14.318;2023-05-10T08:29:16;5.90;;;4.70;;
15216;SDS011;7711;46.634;14.318;2023-05-10T08:31:43;6.70;;;5.10;;
15216;SDS011;7711;46.634;14.318;2023-05-10T08:34:10;6.53;;;5.32;;
15216;SDS011;7711;46.634;14.318;2023-05-10T08:36:38;6.38;;;5.32;;
15216;SDS011;7711;46.634;14.318;2023-05-10T08:39:05;9.88;;;5.18;;
15216;SDS011;7711;46.634;14.318;2023-05-10T08:41:33;7.57;;;5.28;;
15216;SDS011;7711;46.634;14.318;2023-05-10T08:44:02;6.05;;;4.80;;
15216;SDS011;7711;46.634;14.318;2023-05-10T08:46:30;5.68;;;4.65;;
15216;SDS011;7711;46.634;14.318;2023-05-10T08:49:00;7.50;;;4.60;;
15216;SDS011;7711;46.634;14.318;2023-05-10T08:51:31;8.48;;;4.93;;
15216;SDS011;7711;46.634;14.318;2023-05-10T08:54:03;4.97;;;4.47;;
15216;SDS011;7711;46.634;14.318;2023-05-10T08:56:31;5.63;;;5.03;;
15216;SDS011;7711;46.634;14.318;2023-05-10T08:58:58;6.97;;;5.22;;
15216;SDS011;7711;46.634;14.318;2023-05-10T09:01:25;5.78;;;4.78;;
15216;SDS011;7711;46.634;14.318;2023-05-10T09:03:53;5.53;;;4.50;;
15216;SDS011;7711;46.634;14.318;2023-05-10T09:06:21;7.63;;;5.05;;
15216;SDS011;7711;46.634;14.318;2023-05-10T09:08:48;7.57;;;4.60;;
15216;SDS011;7711;46.634;14.318;2023-05-10T09:11:17;8.02;;;4.60;;
15216;SDS011;7711;46.634;14.318;2023-05-10T09:13:46;6.07;;;4.72;;
15216;SDS011;7711;46.634;14.318;2023-05-10T09:16:14;7.90;;;4.40;;
15216;SDS011;7711;46.634;14.318;2023-05-10T09:18:41;4.82;;;4.10;;
15216;SDS011;7711;46.634;14.318;2023-05-10T09:21:08;4.90;;;4.40;;
15216;SDS011;7711;46.634;14.318;2023-05-10T09:23:36;4.68;;;4.18;;
15216;SDS011;7711;46.634;14.318;2023-05-10T09:26:04;5.15;;;4.47;;
15216;SDS011;7711;46.634;14.318;2023-05-10T09:28:33;5.22;;;4.45;;
15216;SDS011;7711;46.634;14.318;2023-05-10T09:31:00;6.15;;;4.63;;
15216;SDS011;7711;46.634;14.318;2023-05-10T09:33:27;7.50;;;4.30;;
15216;SDS011;7711;46.634;14.318;2023-05-10T09:35:54;6.70;;;4.15;;
15216;SDS011;7711;46.634;14.318;2023-05-10T09:38:21;5.20;;;4.20;;
15216;SDS011;7711;46.634;14.318;2023-05-10T09:40:51;6.50;;;4.30;;
15216;SDS011;7711;46.634;14.318;2023-05-10T09:43:20;6.30;;;4.30;;
15216;SDS011;7711;46.634;14.318;2023-05-10T09:45:49;5.78;;;4.50;;
15216;SDS011;7711;46.634;14.318;2023-05-10T09:48:16;5.30;;;4.40;;
15216;SDS011;7711;46.634;14.318;2023-05-10T09:50:42;5.07;;;4.28;;
15216;SDS011;7711;46.634;14.318;2023-05-10T09:53:09;4.75;;;4.10;;
15216;SDS011;7711;46.634;14.318;2023-05-10T09:55:42;5.70;;;4.07;;
15216;SDS011;7711;46.634;14.318;2023-05-10T09:58:11;5.30;;;4.28;;
15216;SDS011;7711;46.634;14.318;2023-05-10T10:00:39;4.78;;;3.90;;
15216;SDS011;7711;46.634;14.318;2023-05-10T10:03:12;5.13;;;4.10;;
15216;SDS011;7711;46.634;14.318;2023-05-10T10:05:41;4.53;;;3.70;;
15216;SDS011;7711;46.634;14.318;2023-05-10T10:08:09;6.30;;;3.65;;
15216;SDS011;7711;46.634;14.318;2023-05-10T10:10:37;4.45;;;3.40;;
15216;SDS011;7711;46.634;14.318;2023-05-10T10:13:05;6.30;;;3.67;;
15216;SDS011;7711;46.634;14.318;2023-05-10T10:15:32;8.35;;;4.22;;
15216;SDS011;7711;46.634;14.318;2023-05-10T10:18:00;4.13;;;3.75;;
15216;SDS011;7711;46.634;14.318;2023-05-10T10:20:29;5.10;;;3.83;;
15216;SDS011;7711;46.634;14.318;2023-05-10T10:22:57;4.65;;;3.95;;
15216;SDS011;7711;46.634;14.318;2023-05-10T10:25:24;4.70;;;3.83;;
15216;SDS011;7711;46.634;14.318;2023-05-10T10:28:09;4.30;;;3.45;;
15216;SDS011;7711;46.634;14.318;2023-05-10T10:30:47;5.13;;;3.67;;
15216;SDS011;7711;46.634;14.318;2023-05-10T10:36:33;4.32;;;3.78;;
15216;SDS011;7711;46.634;14.318;2023-05-10T10:39:08;4.00;;;3.60;;
15216;SDS011;7711;46.634;14.318;2023-05-10T10:41:36;3.90;;;3.60;;
15216;SDS011;7711;46.634;14.318;2023-05-10T10:47:02;6.28;;;3.75;;
15216;SDS011;7711;46.634;14.318;2023-05-10T10:49:43;3.20;;;2.90;;
15216;SDS011;7711;46.634;14.318;2023-05-10T10:52:24;4.63;;;3.63;;
15216;SDS011;7711;46.634;14.318;2023-05-10T10:54:58;3.85;;;3.50;;
15216;SDS011;7711;46.634;14.318;2023-05-10T10:57:26;4.35;;;3.20;;
15216;SDS011;7711;46.634;14.318;2023-05-10T11:03:03;4.93;;;3.80;;
15216;SDS011;7711;46.634;14.318;2023-05-10T11:05:35;4.13;;;3.50;;
15216;SDS011;7711;46.634;14.318;2023-05-10T11:08:08;4.25;;;3.80;;
15216;SDS011;7711;46.634;14.318;2023-05-10T11:10:37;3.85;;;3.20;;
15216;SDS011;7711;46.634;14.318;2023-05-10T11:13:05;5.13;;;3.30;;
15216;SDS011;7711;46.634;14.318;2023-05-10T11:15:33;8.38;;;3.50;;
15216;SDS011;7711;46.634;14.318;2023-05-10T11:18:15;4.32;;;3.80;;
15216;SDS011;7711;46.634;14.318;2023-05-10T11:20:43;4.05;;;3.65;;
15216;SDS011;7711;46.634;14.318;2023-05-10T11:23:17;4.20;;;3.78;;
15216;SDS011;7711;46.634;14.318;2023-05-10T11:25:46;6.97;;;4.13;;
15216;SDS011;7711;46.634;14.318;2023-05-10T11:28:14;3.95;;;3.53;;
15216;SDS011;7711;46.634;14.318;2023-05-10T11:30:43;4.32;;;3.85;;
15216;SDS011;7711;46.634;14.318;2023-05-10T11:33:15;5.65;;;3.83;;
15216;SDS011;7711;46.634;14.318;2023-05-10T11:35:42;4.57;;;3.72;;
15216;SDS011;7711;46.634;14.318;2023-05-10T11:38:10;5.82;;;3.97;;
15216;SDS011;7711;46.634;14.318;2023-05-10T11:40:40;4.03;;;3.63;;
15216;SDS011;7711;46.634;14.318;2023-05-10T11:43:08;4.20;;;3.80;;
15216;SDS011;7711;46.634;14.318;2023-05-10T11:45:36;5.60;;;3.70;;
15216;SDS011;7711;46.634;14.318;2023-05-10T11:48:03;4.30;;;3.90;;
15216;SDS011;7711;46.634;14.318;2023-05-10T11:50:30;4.25;;;3.50;;
15216;SDS011;7711;46.634;14.318;2023-05-10T11:52:58;3.92;;;3.33;;
15216;SDS011;7711;46.634;14.318;2023-05-10T11:55:25;5.70;;;3.50;;
15216;SDS011;7711;46.634;14.318;2023-05-10T11:57:53;4.30;;;3.50;;
15216;SDS011;7711;46.634;14.318;2023-05-10T12:00:20;3.50;;;3.20;;
15216;SDS011;7711;46.634;14.318;2023-05-10T12:02:48;5.85;;;3.70;;
15216;SDS011;7711;46.634;14.318;2023-05-10T12:05:15;5.53;;;3.75;;
15216;SDS011;7711;46.634;14.318;2023-05-10T12:07:43;5.47;;;3.47;;
15216;SDS011;7711;46.634;14.318;2023-05-10T12:10:10;6.70;;;3.47;;
15216;SDS011;7711;46.634;14.318;2023-05-10T12:12:40;3.97;;;3.47;;
15216;SDS011;7711;46.634;14.318;2023-05-10T12:15:12;5.05;;;3.70;;
15216;SDS011;7711;46.634;14.318;2023-05-10T12:17:44;4.25;;;3.45;;
15216;SDS011;7711;46.634;14.318;2023-05-10T12:20:18;5.78;;;3.83;;
15216;SDS011;7711;46.634;14.318;2023-05-10T12:22:47;4.00;;;3.60;;
15216;SDS011;7711;46.634;14.318;2023-05-10T12:25:16;5.00;;;3.55;;
15216;SDS011;7711;46.634;14.318;2023-05-10T12:27:50;4.82;;;3.33;;
15216;SDS011;7711;46.634;14.318;2023-05-10T12:30:23;4.35;;;3.60;;
15216;SDS011;7711;46.634;14.318;2023-05-10T12:32:50;8.10;;;3.58;;
15216;SDS011;7711;46.634;14.318;2023-05-10T12:35:18;3.97;;;3.58;;
15216;SDS011;7711;46.634;14.318;2023-05-10T12:37:47;3.70;;;3.40;;
15216;SDS011;7711;46.634;14.318;2023-05-10T12:40:14;4.18;;;3.40;;
15216;SDS011;7711;46.634;14.318;2023-05-10T12:42:41;5.60;;;3.40;;
15216;SDS011;7711;46.634;14.318;2023-05-10T12:45:10;5.28;;;3.70;;
15216;SDS011;7711;46.634;14.318;2023-05-10T12:47:38;7.38;;;3.83;;
15216;SDS011;7711;46.634;14.318;2023-05-10T12:50:06;5.82;;;3.80;;
15216;SDS011;7711;46.634;14.318;2023-05-10T12:52:33;5.55;;;3.75;;
15216;SDS011;7711;46.634;14.318;2023-05-10T12:55:00;4.40;;;3.55;;
15216;SDS011;7711;46.634;14.318;2023-05-10T12:57:28;5.80;;;3.45;;
15216;SDS011;7711;46.634;14.318;2023-05-10T12:59:55;7.03;;;3.70;;
15216;SDS011;7711;46.634;14.318;2023-05-10T13:02:22;4.93;;;4.10;;
15216;SDS011;7711;46.634;14.318;2023-05-10T13:04:51;9.32;;;3.85;;
15216;SDS011;7711;46.634;14.318;2023-05-10T13:07:18;6.22;;;3.95;;
15216;SDS011;7711;46.634;14.318;2023-05-10T13:09:45;4.35;;;3.95;;
15216;SDS011;7711;46.634;14.318;2023-05-10T13:12:13;6.93;;;4.05;;
15216;SDS011;7711;46.634;14.318;2023-05-10T13:14:39;5.70;;;4.10;;
15216;SDS011;7711;46.634;14.318;2023-05-10T13:17:06;6.18;;;3.83;;
15216;SDS011;7711;46.634;14.318;2023-05-10T13:19:34;5.43;;;4.00;;
15216;SDS011;7711;46.634;14.318;2023-05-10T13:22:02;5.00;;;3.88;;
15216;SDS011;7711;46.634;14.318;2023-05-10T13:24:30;4.55;;;3.90;;
15216;SDS011;7711;46.634;14.318;2023-05-10T13:26:57;3.67;;;3.38;;
15216;SDS011;7711;46.634;14.318;2023-05-10T13:29:24;5.97;;;3.67;;
15216;SDS011;7711;46.634;14.318;2023-05-10T13:31:51;4.53;;;3.53;;
15216;SDS011;7711;46.634;14.318;2023-05-10T13:34:19;4.32;;;3.92;;
15216;SDS011;7711;46.634;14.318;2023-05-10T13:36:46;3.75;;;3.40;;
15216;SDS011;7711;46.634;14.318;2023-05-10T13:39:16;4.78;;;3.90;;
15216;SDS011;7711;46.634;14.318;2023-05-10T13:41:43;4.78;;;3.65;;
15216;SDS011;7711;46.634;14.318;2023-05-10T13:44:11;4.13;;;3.67;;
15216;SDS011;7711;46.634;14.318;2023-05-10T13:46:39;4.60;;;3.80;;
15216;SDS011;7711;46.634;14.318;2023-05-10T13:49:08;4.32;;;3.75;;
15216;SDS011;7711;46.634;14.318;2023-05-10T13:51:35;5.65;;;3.80;;
15216;SDS011;7711;46.634;14.318;2023-05-10T13:54:02;3.92;;;3.60;;
15216;SDS011;7711;46.634;14.318;2023-05-10T13:56:31;6.15;;;3.67;;
15216;SDS011;7711;46.634;14.318;2023-05-10T13:58:58;4.40;;;3.67;;
15216;SDS011;7711;46.634;14.318;2023-05-10T14:01:26;5.72;;;4.18;;
15216;SDS011;7711;46.634;14.318;2023-05-10T14:03:53;4.38;;;3.80;;
15216;SDS011;7711;46.634;14.318;2023-05-10T14:06:20;6.18;;;4.22;;
15216;SDS011;7711;46.634;14.318;2023-05-10T14:08:47;4.13;;;3.72;;
15216;SDS011;7711;46.634;14.318;2023-05-10T14:11:14;5.43;;;4.32;;
15216;SDS011;7711;46.634;14.318;2023-05-10T14:13:42;5.13;;;4.40;;
15216;SDS011;7711;46.634;14.318;2023-05-10T14:16:10;4.28;;;3.60;;
15216;SDS011;7711;46.634;14.318;2023-05-10T14:18:37;4.90;;;4.07;;
15216;SDS011;7711;46.634;14.318;2023-05-10T14:21:04;6.75;;;4.30;;
15216;SDS011;7711;46.634;14.318;2023-05-10T14:23:31;7.57;;;4.50;;
15216;SDS011;7711;46.634;14.318;2023-05-10T14:25:58;5.78;;;4.30;;
15216;SDS011;7711;46.634;14.318;2023-05-10T14:28:25;13.73;;;4.57;;
15216;SDS011;7711;46.634;14.318;2023-05-10T14:30:54;5.93;;;3.92;;
15216;SDS011;7711;46.634;14.318;2023-05-10T14:33:21;5.25;;;4.05;;
15216;SDS011;7711;46.634;14.318;2023-05-10T14:35:48;6.43;;;4.28;;
15216;SDS011;7711;46.634;14.318;2023-05-10T14:38:15;6.53;;;4.35;;
15216;SDS011;7711;46.634;14.318;2023-05-10T14:40:42;5.68;;;4.25;;
15216;SDS011;7711;46.634;14.318;2023-05-10T14:43:10;5.35;;;4.00;;
15216;SDS011;7711;46.634;14.318;2023-05-10T14:45:37;4.90;;;4.45;;
15216;SDS011;7711;46.634;14.318;2023-05-10T14:48:05;6.30;;;4.43;;
15216;SDS011;7711;46.634;14.318;2023-05-10T14:50:36;5.20;;;4.70;;
15216;SDS011;7711;46.634;14.318;2023-05-10T14:53:03;4.90;;;4.40;;
15216;SDS011;7711;46.634;14.318;2023-05-10T14:55:30;5.40;;;4.60;;
15216;SDS011;7711;46.634;14.318;2023-05-10T14:57:57;5.32;;;4.75;;
15216;SDS011;7711;46.634;14.318;2023-05-10T15:00:24;6.03;;;4.75;;
15216;SDS011;7711;46.634;14.318;2023-05-10T15:02:52;4.97;;;4.35;;
15216;SDS011;7711;46.634;14.318;2023-05-10T15:05:20;5.55;;;4.20;;